Terminal Aerodrome Forecast
Issued by NWS

Home | Current Version | Previous Version | Text Only | Print | Product List | Glossary On
Versions: 1 2 3 4 5 6 7 8 9 10 11 12 13 14 15 16 17 18 19 20 21 22
000
FTUS42 KMHX 262320
TAFPGV
TAF
KPGV 262320Z 2700/2724 20008KT P6SM OVC150
     FM270700 21009KT 5SM -RA BR OVC008
     FM271100 29008KT 5SM -RA BR OVC005
     FM271400 02012G18KT 4SM -RA BR OVC007
      AMD LTD TO CLD VIS AND WIND=

USA.gov is the U.S. government's official web portal to all federal, state and local government web resources and services.